Time;durP1;ratioP1;P1;durP2;ratioP2;P2;SDS_P1;SDS_P2;PMS_P1;PMS_P2;Temp;Humidity;BMP_temperature;BMP_pressure;BME280_temperature;BME280_humidity;BME280_pressure;Samples;Min_cycle;Max_cycle;Signal;HPM_P1;HPM_P2
2023/02/24 00:01:23;;;;;;;18.45;2.75;;;3.80;99.90;;;2.11;100.00;100460.88;5041345;28;20419;-77
2023/02/24 00:03:58;;;;;;;17.83;4.00;;;3.80;99.90;;;2.13;100.00;100456.19;5043917;28;20028;-78
2023/02/24 00:06:39;;;;;;;28.80;3.83;;;3.80;99.90;;;2.04;100.00;100465.25;5046248;28;20481;-77
2023/02/24 00:09:10;;;;;;;23.20;4.47;;;3.80;99.90;;;1.98;100.00;100466.75;5038988;28;20047;-77
2023/02/24 00:11:39;;;;;;;20.00;3.08;;;3.70;99.90;;;1.94;100.00;100457.31;5058766;28;20037;-77
2023/02/24 00:14:14;;;;;;;17.38;3.20;;;3.60;99.90;;;1.91;100.00;100454.97;5060422;28;20408;-77
2023/02/24 00:16:45;;;;;;;33.47;4.97;;;3.60;99.90;;;1.82;100.00;100447.88;5044747;28;20034;-78
2023/02/24 00:19:15;;;;;;;23.15;3.38;;;3.60;99.90;;;1.77;100.00;100452.91;5042403;28;20504;-77
2023/02/24 00:21:42;;;;;;;15.35;3.17;;;3.50;99.90;;;1.74;100.00;100446.00;5043671;28;20060;-78
2023/02/24 00:24:09;;;;;;;18.47;2.70;;;3.50;99.90;;;1.66;100.00;100443.31;5051470;28;20033;-77
2023/02/24 00:26:35;;;;;;;17.83;2.88;;;3.40;99.90;;;1.53;100.00;100422.25;5057886;28;20356;-78
2023/02/24 00:29:05;;;;;;;21.30;3.40;;;3.30;99.90;;;1.37;100.00;100428.41;5044517;28;20041;-78
2023/02/24 00:31:32;;;;;;;21.83;3.03;;;3.10;99.90;;;1.19;100.00;100426.66;5053870;28;20045;-78
2023/02/24 00:33:59;;;;;;;16.67;2.35;;;2.90;99.90;;;1.04;100.00;100428.22;5046616;28;20083;-79
2023/02/24 00:36:28;;;;;;;29.80;3.80;;;2.80;99.90;;;0.96;100.00;100418.31;5058570;28;20037;-78
2023/02/24 00:39:08;;;;;;;30.25;3.83;;;2.70;99.90;;;0.92;100.00;100417.78;5041734;28;20091;-78
2023/02/24 00:41:39;;;;;;;19.15;2.92;;;2.70;99.90;;;0.96;100.00;100413.75;5034698;28;20045;-78
2023/02/24 00:44:10;;;;;;;22.70;4.18;;;2.70;99.90;;;1.03;100.00;100407.75;5053841;28;20041;-78
2023/02/24 00:46:45;;;;;;;16.30;2.78;;;2.70;99.90;;;1.06;100.00;100407.41;5043024;28;20060;-79
2023/02/24 00:49:19;;;;;;;15.00;2.72;;;2.70;99.90;;;1.08;100.00;100408.13;5041191;28;20106;-78
2023/02/24 00:51:48;;;;;;;27.90;3.20;;;2.80;99.90;;;1.04;100.00;100396.84;5039606;28;20087;-77
2023/02/24 00:54:16;;;;;;;17.75;3.13;;;2.70;99.90;;;0.97;100.00;100396.63;5066629;28;20041;-78
2023/02/24 00:56:45;;;;;;;20.05;3.33;;;2.70;99.90;;;0.96;100.00;100389.59;5036552;28;20044;-77
2023/02/24 00:59:14;;;;;;;22.77;2.92;;;2.60;99.90;;;0.93;100.00;100392.59;5038137;28;20111;-77
2023/02/24 01:01:43;;;;;;;28.38;3.05;;;2.60;99.90;;;0.98;100.00;100394.81;5037915;28;20428;-78
2023/02/24 01:04:11;;;;;;;17.25;3.63;;;2.70;99.90;;;0.99;100.00;100378.50;5055252;28;20025;-78
2023/02/24 01:06:44;;;;;;;20.48;3.22;;;2.70;99.90;;;1.02;100.00;100380.06;5041188;28;20044;-79
2023/02/24 01:09:15;;;;;;;27.38;4.13;;;2.70;99.90;;;1.09;100.00;100373.03;5045751;28;20039;-78
2023/02/24 01:14:32;;;;;;;25.38;3.13;;;2.90;99.90;;;1.22;100.00;100364.50;5047354;28;20029;-77
2023/02/24 01:16:58;;;;;;;27.15;3.13;;;2.90;99.90;;;1.28;100.00;100368.41;5063230;28;20060;-78
2023/02/24 01:19:30;;;;;;;23.73;3.53;;;3.00;99.90;;;1.35;100.00;100365.91;5049253;28;20094;-77
2023/02/24 01:22:02;;;;;;;20.35;3.00;;;3.10;99.90;;;1.40;100.00;100367.06;5050883;28;20127;-78
2023/02/24 01:24:32;;;;;;;24.85;4.18;;;3.10;99.90;;;1.46;100.00;100362.03;5062291;28;20033;-78
2023/02/24 01:26:58;;;;;;;23.55;3.42;;;3.20;99.90;;;1.47;100.00;100363.75;5060444;28;20072;-78
2023/02/24 01:29:24;;;;;;;22.15;3.15;;;3.20;99.90;;;1.51;100.00;100360.56;5056670;28;20037;-78
2023/02/24 01:31:51;;;;;;;17.40;2.72;;;3.20;99.90;;;1.54;100.00;100359.41;5067414;28;20040;-78
2023/02/24 01:34:17;;;;;;;24.63;3.05;;;3.30;99.90;;;1.56;100.00;100357.38;5060561;28;20045;-79
2023/02/24 01:36:45;;;;;;;20.60;2.70;;;3.30;99.90;;;1.57;100.00;100361.75;5050232;28;20417;-78
2023/02/24 01:39:12;;;;;;;23.83;3.08;;;3.30;99.90;;;1.58;100.00;100361.56;5055024;28;20074;-78
2023/02/24 01:41:48;;;;;;;19.42;3.70;;;3.30;99.90;;;1.61;100.00;100360.41;5054592;28;20538;-78
2023/02/24 01:44:16;;;;;;;20.85;3.03;;;3.30;99.90;;;1.62;100.00;100355.88;5062351;28;20033;-78
2023/02/24 01:46:45;;;;;;;16.90;2.80;;;3.30;99.90;;;1.62;100.00;100353.19;5060892;28;20107;-78
2023/02/24 01:49:21;;;;;;;23.08;3.00;;;3.40;99.90;;;1.65;100.00;100342.09;5045426;28;20099;-78
2023/02/24 01:51:52;;;;;;;19.42;2.88;;;3.40;99.90;;;1.64;100.00;100337.75;5040993;28;20044;-79
2023/02/24 01:54:23;;;;;;;24.23;2.90;;;3.40;99.90;;;1.64;100.00;100333.19;5040786;28;20050;-78
2023/02/24 01:56:52;;;;;;;26.08;3.53;;;3.30;99.90;;;1.68;100.00;100341.78;5058797;28;20036;-79
2023/02/24 01:59:21;;;;;;;18.23;2.55;;;3.40;99.90;;;1.68;100.00;100347.16;5056869;28;20025;-77
2023/02/24 02:01:52;;;;;;;20.23;3.08;;;3.40;99.90;;;1.70;100.00;100332.50;5044015;28;20073;-78
2023/02/24 02:04:47;;;;;;;21.10;2.72;;;3.40;99.90;;;1.71;100.00;100331.50;5058230;28;20037;-78
2023/02/24 02:07:20;;;;;;;12.57;2.38;;;3.40;99.90;;;1.73;100.00;100328.66;5033009;28;20025;-79
2023/02/24 02:09:48;;;;;;;18.13;2.53;;;3.50;99.90;;;1.73;100.00;100325.97;5052593;28;20536;-78
2023/02/24 02:12:14;;;;;;;15.20;2.80;;;3.50;99.90;;;1.80;100.00;100323.47;5024248;28;20037;-79
2023/02/24 02:14:51;;;;;;;15.48;2.35;;;3.50;99.90;;;1.83;100.00;100320.44;5042536;28;20106;-78
2023/02/24 02:17:28;;;;;;;13.60;2.28;;;3.50;99.90;;;1.81;100.00;100320.59;5039244;28;20408;-77
2023/02/24 02:20:31;;;;;;;14.13;2.58;;;3.50;99.90;;;1.82;100.00;100313.38;5038162;28;20424;-77
2023/02/24 02:23:49;;;;;;;13.85;2.60;;;3.50;99.90;;;1.82;100.00;100316.88;5051518;28;20140;-78
2023/02/24 02:26:57;;;;;;;14.18;2.35;;;3.50;99.90;;;1.78;100.00;100307.47;5037636;28;20477;-78
2023/02/24 02:29:50;;;;;;;16.02;2.70;;;3.50;99.90;;;1.77;100.00;100302.28;5031744;28;20131;-79
2023/02/24 02:33:07;;;;;;;11.73;2.42;;;3.50;99.90;;;1.76;100.00;100292.53;5046337;28;20037;-77
2023/02/24 02:35:59;;;;;;;16.08;2.55;;;3.50;99.90;;;1.78;100.00;100287.81;5037888;28;20053;-78
2023/02/24 02:38:38;;;;;;;21.58;2.72;;;3.50;99.90;;;1.76;100.00;100290.66;5054854;28;20072;-77
2023/02/24 02:41:46;;;;;;;13.10;1.90;;;3.50;99.90;;;1.74;100.00;100281.94;5064353;28;20040;-78
2023/02/24 02:44:31;;;;;;;19.27;2.97;;;3.50;99.90;;;1.71;100.00;100284.97;5044226;28;20060;-77
2023/02/24 02:47:13;;;;;;;16.52;2.30;;;3.40;99.90;;;1.70;100.00;100277.91;5042636;28;20049;-78
2023/02/24 02:49:51;;;;;;;13.02;2.53;;;3.40;99.90;;;1.67;100.00;100278.25;5043920;28;20040;-78
2023/02/24 02:52:33;;;;;;;10.88;2.30;;;3.40;99.90;;;1.66;100.00;100274.69;5031681;28;20029;-77
2023/02/24 02:55:10;;;;;;;15.02;2.63;;;3.40;99.90;;;1.64;100.00;100274.03;5052376;28;20037;-78
2023/02/24 02:57:45;;;;;;;12.80;2.28;;;3.40;99.90;;;1.61;100.00;100268.16;5057842;28;20264;-78
2023/02/24 03:00:22;;;;;;;23.17;2.75;;;3.30;99.90;;;1.60;100.00;100256.53;5034946;28;20029;-79
2023/02/24 03:02:54;;;;;;;16.17;2.60;;;3.30;99.90;;;1.58;100.00;100258.56;5040175;28;20531;-78
2023/02/24 03:05:30;;;;;;;16.45;2.53;;;3.30;99.90;;;1.60;100.00;100261.09;5041726;28;20112;-77
2023/02/24 03:08:03;;;;;;;13.52;2.40;;;3.30;99.90;;;1.60;100.00;100256.53;5052962;28;20073;-77
2023/02/24 03:10:33;;;;;;;17.52;2.67;;;3.30;99.90;;;1.58;100.00;100245.94;5052326;28;20448;-78
2023/02/24 03:13:04;;;;;;;17.05;2.50;;;3.30;99.90;;;1.56;100.00;100247.13;5058369;28;20025;-78
2023/02/24 03:15:33;;;;;;;14.13;2.55;;;3.30;99.90;;;1.47;100.00;100229.31;5036677;28;20029;-78
2023/02/24 03:18:10;;;;;;;12.98;2.10;;;3.30;99.90;;;1.50;100.00;100240.56;5034929;28;20522;-78
2023/02/24 03:21:00;;;;;;;18.42;2.58;;;3.20;99.90;;;1.49;100.00;100238.06;5053963;28;20032;-77
2023/02/24 03:23:30;;;;;;;;;;;3.20;99.90;;;1.48;100.00;100234.53;5046065;28;20037;-77
2023/02/24 03:26:27;;;;;;;12.35;2.25;;;3.20;99.90;;;1.38;100.00;100215.03;5058025;28;19935;-78
2023/02/24 03:29:22;;;;;;;13.77;2.33;;;3.10;99.90;;;1.31;100.00;100217.53;5047546;28;20460;-78
2023/02/24 03:31:58;;;;;;;14.70;2.22;;;3.10;99.90;;;1.28;100.00;100215.19;5047575;28;20041;-77
2023/02/24 03:34:33;;;;;;;11.40;2.20;;;3.00;99.90;;;1.23;100.00;100213.00;5047821;28;20393;-77
2023/02/24 03:37:00;;;;;;;8.48;2.92;;;3.00;99.90;;;1.20;100.00;100207.13;5045055;28;20041;-77
2023/02/24 03:39:27;;;;;;;15.77;2.58;;;3.00;99.90;;;1.17;100.00;100208.28;5052187;28;20095;-77
2023/02/24 03:42:17;;;;;;;14.15;2.10;;;2.90;99.90;;;1.15;100.00;100202.25;5047122;28;20033;-76
2023/02/24 03:44:44;;;;;;;14.80;2.22;;;2.90;99.90;;;1.17;100.00;100202.91;5056674;28;20114;-78
2023/02/24 03:47:13;;;;;;;15.05;1.83;;;2.90;99.90;;;1.14;100.00;100192.50;5040884;28;20579;-78
2023/02/24 03:49:42;;;;;;;10.88;1.50;;;2.90;99.90;;;1.20;100.00;100196.38;5042570;28;20037;-77
2023/02/24 03:52:46;;;;;;;14.38;2.00;;;2.90;99.90;;;1.24;100.00;100189.66;5057145;28;20037;-78
2023/02/24 03:55:36;;;;;;;14.02;2.28;;;2.90;99.90;;;1.21;100.00;100184.63;5046945;28;20033;-77
2023/02/24 03:58:50;;;;;;;14.68;2.10;;;2.90;99.90;;;1.19;100.00;100189.28;5034849;28;20033;-78
2023/02/24 04:01:54;;;;;;;9.45;1.83;;;2.90;99.90;;;1.15;100.00;100180.75;5054164;28;20033;-77
2023/02/24 04:04:55;;;;;;;7.25;2.15;;;2.90;99.90;;;1.17;100.00;100177.88;5049652;28;20040;-77
2023/02/24 04:08:01;;;;;;;9.55;1.83;;;2.90;99.90;;;1.20;100.00;100180.25;5032955;28;20037;-78
2023/02/24 04:10:51;;;;;;;11.45;1.80;;;2.90;99.90;;;1.31;100.00;100173.69;5051804;28;20116;-77
2023/02/24 04:13:45;;;;;;;7.78;1.98;;;3.00;99.90;;;1.31;100.00;100174.53;5051107;28;20045;-78
2023/02/24 04:16:35;;;;;;;11.60;1.60;;;3.10;99.90;;;1.33;100.00;100166.31;5032427;28;20155;-78
2023/02/24 04:19:14;;;;;;;12.38;1.73;;;3.10;99.90;;;1.39;100.00;100157.56;5062834;28;20485;-77
2023/02/24 04:21:44;;;;;;;9.70;1.60;;;3.10;99.90;;;1.37;100.00;100162.28;5055906;28;20175;-77
2023/02/24 04:24:27;;;;;;;13.82;1.88;;;3.10;99.90;;;1.36;100.00;100157.91;5051942;28;20029;-77
2023/02/24 04:26:59;;;;;;;11.07;1.43;;;3.10;99.90;;;1.39;100.00;100160.25;5050360;28;20022;-78
2023/02/24 04:29:34;;;;;;;7.90;1.60;;;3.10;99.90;;;1.37;100.00;100148.84;5052574;28;20297;-79
2023/02/24 04:32:08;;;;;;;11.40;1.75;;;3.10;99.90;;;1.37;100.00;100159.59;5047716;28;20040;-79
2023/02/24 04:34:36;;;;;;;11.27;1.67;;;3.10;99.90;;;1.42;100.00;100149.16;5048742;28;20103;-79
2023/02/24 04:37:02;;;;;;;11.93;2.20;;;3.10;99.90;;;1.47;100.00;100144.13;5042134;28;20068;-79
2023/02/24 04:39:30;;;;;;;13.00;1.90;;;3.20;99.90;;;1.48;100.00;100151.16;5033605;28;20040;-78
2023/02/24 04:42:00;;;;;;;8.48;2.22;;;3.20;99.90;;;1.47;100.00;100143.28;5064455;28;20056;-77
2023/02/24 04:44:27;;;;;;;;;;;3.20;99.90;;;1.45;100.00;100146.13;5038671;28;20041;-78
2023/02/24 04:46:53;;;;;;;8.88;1.45;;;3.20;99.90;;;1.43;100.00;100142.78;5039896;28;20361;-77
2023/02/24 04:49:19;;;;;;;7.80;1.60;;;3.20;99.90;;;1.39;100.00;100136.06;5056678;28;20040;-79
2023/02/24 04:51:45;;;;;;;10.18;1.60;;;3.20;99.90;;;1.38;100.00;100135.22;5034391;28;20378;-78
2023/02/24 04:54:16;;;;;;;12.10;1.75;;;3.10;99.90;;;1.34;100.00;100119.63;5045741;28;20084;-78
2023/02/24 04:56:49;;;;;;;8.30;1.60;;;3.20;99.90;;;1.36;100.00;100139.91;5056533;28;20040;-78
2023/02/24 04:59:21;;;;;;;10.32;1.52;;;3.10;99.90;;;1.37;100.00;100143.47;5042401;28;20118;-76
2023/02/24 05:01:50;;;;;;;9.73;1.73;;;3.10;99.90;;;1.38;100.00;100131.69;5036120;28;20076;-76
2023/02/24 05:04:17;;;;;;;11.55;1.50;;;3.10;99.90;;;1.33;100.00;100126.00;5040192;28;20065;-76
2023/02/24 05:06:43;;;;;;;10.13;1.70;;;3.10;99.90;;;1.31;100.00;100114.53;5034392;28;20044;-76
2023/02/24 05:09:18;;;;;;;10.48;2.58;;;3.10;99.90;;;1.29;100.00;100110.19;5036226;28;20436;-76
2023/02/24 05:11:50;;;;;;;8.75;1.77;;;3.10;99.90;;;1.32;100.00;100102.78;5034084;28;20539;-76
2023/02/24 05:14:23;;;;;;;7.22;1.40;;;3.10;99.90;;;1.33;100.00;100104.50;5038851;28;20045;-77
2023/02/24 05:16:49;;;;;;;10.45;1.75;;;3.10;99.90;;;1.24;100.00;100087.53;5038758;28;20382;-76
2023/02/24 05:22:06;;;;;;;9.45;1.55;;;3.00;99.90;;;1.26;100.00;100083.66;5035160;28;20112;-76
2023/02/24 05:24:32;;;;;;;9.48;1.55;;;3.00;99.90;;;1.31;100.00;100076.91;5057654;28;20029;-76
2023/02/24 05:26:58;;;;;;;7.88;1.65;;;3.10;99.90;;;1.26;100.00;100067.53;5033789;28;20095;-78
2023/02/24 05:29:27;;;;;;;10.80;1.65;;;3.00;99.90;;;1.32;100.00;100065.16;5033701;28;20036;-77
2023/02/24 05:31:58;;;;;;;10.05;1.60;;;3.10;99.90;;;1.34;100.00;100069.38;5039153;28;20489;-76
2023/02/24 05:34:24;;;;;;;9.88;1.40;;;3.00;99.90;;;1.37;100.00;100058.25;5043135;28;20106;-76
2023/02/24 05:36:52;;;;;;;12.93;1.70;;;3.10;99.90;;;1.29;100.00;100044.84;5057223;28;20131;-77
2023/02/24 05:39:19;;;;;;;10.38;1.80;;;3.10;99.90;;;1.31;100.00;100047.34;5043796;28;20129;-77
2023/02/24 05:41:48;;;;;;;11.15;2.17;;;3.10;99.90;;;1.35;100.00;100054.09;5048749;28;20429;-77
2023/02/24 05:44:24;;;;;;;6.60;1.42;;;3.10;99.90;;;1.32;100.00;100039.13;5032369;28;20393;-78
2023/02/24 05:46:58;;;;;;;10.93;1.58;;;3.10;99.90;;;1.29;100.00;100034.94;5059354;28;20076;-75
2023/02/24 05:49:31;;;;;;;8.98;1.70;;;3.10;99.90;;;1.26;100.00;100027.22;5039906;28;20078;-76
2023/02/24 05:52:06;;;;;;;7.60;1.42;;;3.00;99.90;;;1.31;100.00;100020.47;5036259;28;20377;-76
2023/02/24 05:54:39;;;;;;;11.00;1.65;;;3.00;99.90;;;1.27;100.00;100018.13;5043426;28;20527;-76
2023/02/24 05:57:12;;;;;;;5.18;1.00;;;3.00;99.90;;;1.31;100.00;100015.09;5048741;28;20037;-76
2023/02/24 05:59:43;;;;;;;7.85;1.52;;;3.10;99.90;;;1.26;100.00;100011.09;5049054;28;20052;-78
2023/02/24 06:02:13;;;;;;;9.43;1.33;;;3.00;99.90;;;1.24;100.00;100002.34;5063500;28;20029;-76
2023/02/24 06:04:52;;;;;;;7.50;1.60;;;3.00;99.90;;;1.24;100.00;100004.22;5048120;28;20405;-76
2023/02/24 06:07:27;;;;;;;6.90;1.25;;;3.00;99.90;;;1.26;100.00;99992.28;5044630;28;20032;-76
2023/02/24 06:09:56;;;;;;;9.23;1.45;;;3.00;99.90;;;1.27;100.00;99983.19;5044149;28;20468;-78
2023/02/24 06:12:32;;;;;;;9.75;1.20;;;3.00;99.90;;;1.24;100.00;99980.03;5037322;28;20059;-76
2023/02/24 06:14:59;;;;;;;6.32;1.50;;;3.00;99.90;;;1.25;100.00;99974.47;5035955;28;20037;-76
2023/02/24 06:17:26;;;;;;;5.63;1.50;;;3.00;99.90;;;1.21;100.00;99973.13;5032765;28;20037;-76
2023/02/24 06:19:53;;;;;;;6.38;1.08;;;3.00;99.90;;;1.23;100.00;99964.91;5032389;28;20147;-77
2023/02/24 06:22:23;;;;;;;4.85;1.20;;;3.00;99.90;;;1.26;100.00;99965.41;5019685;28;20084;-76
2023/02/24 06:24:49;;;;;;;8.43;1.67;;;3.00;99.90;;;1.29;100.00;99956.97;5041769;28;20045;-77
2023/02/24 06:27:17;;;;;;;5.75;0.90;;;3.00;99.90;;;1.33;100.00;99945.91;5036226;28;20101;-76
2023/02/24 06:29:51;;;;;;;4.72;1.00;;;3.00;99.90;;;1.36;100.00;99950.94;5043570;28;20120;-77
2023/02/24 06:32:24;;;;;;;6.72;1.10;;;3.10;99.90;;;1.37;100.00;99933.78;5044943;28;20068;-76
2023/02/24 06:34:51;;;;;;;4.03;0.90;;;3.10;99.90;;;1.39;100.00;99940.66;5052081;28;20037;-77
2023/02/24 06:37:17;;;;;;;9.20;1.33;;;3.10;99.90;;;1.38;100.00;99935.47;5035157;28;20038;-76
2023/02/24 06:39:43;;;;;;;6.20;1.00;;;3.10;99.90;;;1.42;100.00;99917.97;5041794;28;20036;-75
2023/02/24 06:42:11;;;;;;;7.72;1.38;;;3.10;99.90;;;1.42;99.36;99917.97;5035862;28;20404;-75
2023/02/24 06:44:38;;;;;;;9.80;1.20;;;3.20;99.90;;;1.41;99.33;99914.44;5037282;28;20116;-76
2023/02/24 06:47:07;;;;;;;4.82;1.10;;;3.20;99.90;;;1.40;99.31;99922.69;5036287;28;20060;-76
2023/02/24 06:49:33;;;;;;;6.97;1.10;;;3.20;99.90;;;1.48;97.51;99919.13;5038890;28;20033;-76
2023/02/24 06:51:59;;;;;;;6.05;1.38;;;3.20;99.90;;;1.43;98.77;99907.03;5042335;28;20102;-75
2023/02/24 06:54:29;;;;;;;5.63;1.00;;;3.20;99.90;;;1.44;96.84;99913.25;5035689;28;20037;-76
2023/02/24 06:56:58;;;;;;;4.55;1.00;;;3.20;99.90;;;1.49;97.22;99912.75;5047935;28;20034;-77
2023/02/24 06:59:28;;;;;;;6.43;1.20;;;3.20;99.90;;;1.50;97.38;99907.19;5032206;28;20030;-77
2023/02/24 07:01:56;;;;;;;5.53;0.80;;;3.20;99.90;;;1.50;96.68;99906.34;5032294;28;20052;-77
2023/02/24 07:04:23;;;;;;;;;;;3.20;99.90;;;1.52;97.19;99904.31;5052350;28;20037;-77
2023/02/24 07:07:01;;;;;;;6.50;1.17;;;3.20;99.90;;;1.48;97.76;99900.31;5047224;28;19917;-77
2023/02/24 07:09:29;;;;;;;9.05;1.55;;;3.20;99.90;;;1.52;97.16;99905.16;5038029;28;20048;-76
2023/02/24 07:11:55;;;;;;;4.93;1.55;;;3.20;99.90;;;1.50;96.84;99898.28;5055450;28;20037;-77
2023/02/24 07:14:24;;;;;;;9.27;1.25;;;3.30;99.90;;;1.56;96.60;99895.72;5041643;28;20025;-77
2023/02/24 07:16:52;;;;;;;4.80;1.25;;;3.30;99.90;;;1.58;97.50;99909.81;5038043;28;20033;-77
2023/02/24 07:19:22;;;;;;;;;;;3.30;99.90;;;1.63;95.58;99889.66;5036587;28;20029;-77
2023/02/24 07:21:58;;;;;;;4.22;0.75;;;3.40;99.90;;;1.61;96.39;99889.00;5053621;28;20289;-76
2023/02/24 07:24:34;;;;;;;7.25;2.33;;;3.40;99.90;;;1.63;95.87;99878.91;5048664;28;20119;-78
2023/02/24 07:27:09;;;;;;;3.20;0.90;;;3.40;99.90;;;1.65;94.42;99868.78;5048710;28;20030;-78
2023/02/24 07:29:37;;;;;;;6.32;1.23;;;3.40;99.90;;;1.68;95.49;99876.50;5039905;28;20446;-77
2023/02/24 07:32:07;;;;;;;8.13;2.03;;;3.40;99.90;;;1.68;96.18;99881.88;5037054;28;20040;-78
2023/02/24 07:34:33;;;;;;;6.68;1.00;;;3.40;99.90;;;1.66;95.06;99878.53;5037421;28;20400;-78
2023/02/24 07:37:06;;;;;;;6.72;1.15;;;3.40;99.90;;;1.63;94.27;99860.06;5032004;28;20099;-76
2023/02/24 07:39:33;;;;;;;8.80;1.55;;;3.40;99.90;;;1.67;95.93;99856.00;5038064;28;20048;-77
2023/02/24 07:41:59;;;;;;;7.22;0.80;;;3.40;99.90;;;1.71;95.70;99860.00;5038692;28;20036;-80
2023/02/24 07:44:25;;;;;;;8.25;1.20;;;3.40;99.90;;;1.72;93.59;99842.84;5040440;28;20045;-78
2023/02/24 07:46:51;;;;;;;9.23;1.10;;;3.40;99.90;;;1.70;94.97;99837.66;5047941;28;20029;-78
2023/02/24 07:49:22;;;;;;;5.72;1.00;;;3.40;99.90;;;1.74;95.09;99835.44;5040145;28;20058;-79
2023/02/24 07:51:51;;;;;;;6.57;1.30;;;3.50;99.90;;;1.77;93.42;99829.72;5051654;28;20041;-78
2023/02/24 07:54:22;;;;;;;5.60;1.20;;;3.50;99.90;;;1.79;92.86;99837.59;5035545;28;20059;-81
2023/02/24 07:56:55;;;;;;;6.10;1.20;;;3.50;99.90;;;1.80;92.41;99818.59;5048210;28;20504;-79
2023/02/24 07:59:31;;;;;;;8.10;0.93;;;3.60;99.90;;;1.78;93.14;99820.63;5045502;28;20029;-78
2023/02/24 08:01:57;;;;;;;6.88;1.25;;;3.60;99.90;;;1.84;92.58;99811.00;5054203;28;20144;-80
2023/02/24 08:04:29;;;;;;;3.70;1.48;;;3.60;99.90;;;1.83;93.77;99815.53;5044966;28;20029;-80
2023/02/24 08:06:57;;;;;;;4.25;0.90;;;3.60;99.90;;;1.89;94.93;99807.78;5057123;28;20127;-80
2023/02/24 08:12:16;;;;;;;14.70;1.58;;;3.60;99.90;;;1.83;93.30;99798.56;5046044;28;20120;-81
2023/02/24 08:14:43;;;;;;;6.93;1.02;;;3.60;99.90;;;1.84;92.26;99787.63;5047036;28;20508;-78
2023/02/24 08:17:11;;;;;;;6.82;1.23;;;3.60;99.90;;;1.82;93.01;99778.88;5046624;28;20044;-78
2023/02/24 08:19:39;;;;;;;5.10;0.98;;;3.60;99.90;;;1.85;93.00;99785.78;5043953;28;20037;-80
2023/02/24 08:22:18;;;;;;;5.63;0.82;;;3.60;99.90;;;1.85;93.09;99783.09;5035243;28;20033;-82
2023/02/24 08:24:51;;;;;;;4.97;1.00;;;3.60;99.90;;;1.88;91.63;99780.03;5039681;28;20048;-79
2023/02/24 08:27:19;;;;;;;5.78;0.90;;;3.60;99.90;;;1.93;93.14;99774.13;5043421;28;20053;-78
2023/02/24 08:30:01;;;;;;;8.30;1.38;;;3.70;99.90;;;1.93;92.37;99776.81;5039428;28;20114;-79
2023/02/24 08:32:42;;;;;;;9.82;1.10;;;3.60;99.90;;;1.98;91.60;99758.25;5039827;28;20504;-78
2023/02/24 08:35:17;;;;;;;5.47;1.17;;;3.70;99.90;;;2.00;92.77;99765.13;5055353;28;20085;-77
2023/02/24 08:37:47;;;;;;;4.43;1.02;;;3.70;99.90;;;1.98;91.62;99763.63;5034512;28;20136;-77
2023/02/24 08:43:23;;;;;;;9.27;1.30;;;3.70;99.90;;;1.98;92.98;99753.69;5070481;28;20285;-77
2023/02/24 08:46:11;;;;;;;5.45;1.10;;;3.70;99.90;;;1.97;92.83;99761.97;5047600;28;20041;-79
2023/02/24 08:48:58;;;;;;;7.22;1.08;;;3.70;99.90;;;1.83;96.83;99750.97;5055227;28;20072;-78
2023/02/24 08:51:35;;;;;;;5.70;1.00;;;3.60;99.90;;;1.81;96.40;99758.38;5055952;28;20033;-80
2023/02/24 08:54:14;;;;;;;8.65;1.27;;;3.50;99.90;;;1.72;97.62;99759.50;5047795;28;20064;-80
2023/02/24 08:56:47;;;;;;;8.00;1.17;;;3.50;99.90;;;1.69;100.00;99775.97;5042967;28;20145;-83
2023/02/24 09:02:22;;;;;;;6.10;1.52;;;3.30;99.90;;;1.37;100.00;99776.03;5040796;28;20036;-81
2023/02/24 09:05:02;;;;;;;6.47;1.75;;;3.20;99.90;;;1.21;100.00;99784.22;5022249;28;20507;-83
2023/02/24 09:07:37;;;;;;;5.13;1.08;;;3.00;99.90;;;1.06;100.00;99771.50;5048114;28;20029;-84
2023/02/24 09:10:11;;;;;;;11.30;2.00;;;2.90;99.90;;;0.96;100.00;99765.53;5049630;28;20094;-82
2023/02/24 09:12:40;;;;;;;6.97;1.35;;;2.70;99.90;;;0.90;100.00;99750.94;5058329;28;20037;-79
2023/02/24 09:15:08;;;;;;;6.20;1.23;;;2.70;99.90;;;0.85;100.00;99746.09;5063735;28;20103;-82
2023/02/24 09:17:48;;;;;;;7.53;1.40;;;2.70;99.90;;;0.85;100.00;99746.09;5057554;28;20123;-81
2023/02/24 09:20:55;;;;;;;4.85;1.15;;;2.60;99.90;;;0.80;100.00;99745.78;5033922;28;20037;-81
2023/02/24 09:23:18;;;;;;;10.45;1.77;;;2.60;99.90;;;0.76;100.00;99740.94;5040717;28;20033;-80
2023/02/24 09:25:48;;;;;;;10.80;1.30;;;2.50;99.90;;;0.74;100.00;99725.00;5035708;28;20037;-78
2023/02/24 09:28:25;;;;;;;15.98;1.80;;;2.50;99.90;;;0.72;100.00;99718.97;5043077;28;20086;-80
2023/02/24 09:30:57;;;;;;;5.55;1.48;;;2.40;99.90;;;0.66;100.00;99723.19;5047357;28;20571;-78
2023/02/24 09:33:28;;;;;;;10.00;1.85;;;2.40;99.90;;;0.65;100.00;99713.47;5056561;28;20048;-80
2023/02/24 09:36:11;;;;;;;13.48;2.25;;;2.40;99.90;;;0.67;100.00;99700.69;5032117;28;20567;-78
2023/02/24 09:41:52;;;;;;;11.35;2.30;;;2.40;99.90;;;0.72;100.00;99702.88;5038663;28;20080;-80
2023/02/24 09:44:54;;;;;;;6.20;1.77;;;2.40;99.90;;;0.65;100.00;99701.88;5054347;28;20044;-79
2023/02/24 09:50:21;;;;;;;;;;;2.40;99.90;;;0.58;100.00;99688.34;5040640;28;20037;-78
2023/02/24 09:52:51;;;;;;;6.47;2.05;;;2.40;99.90;;;0.58;100.00;99661.50;5043128;28;19932;-79
2023/02/24 09:55:45;;;;;;;10.98;2.45;;;2.30;99.90;;;0.59;100.00;99683.78;5033459;28;20124;-78
2023/02/24 09:58:48;;;;;;;10.15;2.55;;;2.30;99.90;;;0.57;100.00;99668.69;5036387;28;20033;-81
2023/02/24 10:01:32;;;;;;;11.88;2.50;;;2.40;99.90;;;0.66;100.00;99652.53;5057020;28;20784;-76
2023/02/24 10:04:52;;;;;;;14.68;2.75;;;2.40;99.90;;;0.69;100.00;99658.41;5049543;28;20029;-78
2023/02/24 10:07:29;;;;;;;11.30;2.42;;;2.40;99.90;;;0.69;100.00;99650.34;5047664;28;20192;-79
2023/02/24 10:10:18;;;;;;;10.15;2.42;;;2.40;99.90;;;0.69;100.00;99642.28;5036036;28;20044;-77
2023/02/24 10:12:53;;;;;;;7.47;2.33;;;2.50;99.90;;;0.73;100.00;99650.84;5029869;28;20473;-76
2023/02/24 10:15:57;;;;;;;11.48;2.50;;;2.50;99.90;;;0.78;100.00;99640.41;5050303;28;20047;-76
2023/02/24 10:18:59;;;;;;;10.50;2.42;;;2.50;99.90;;;0.73;100.00;99640.09;5049161;28;20116;-75
2023/02/24 10:22:01;;;;;;;11.27;2.88;;;2.50;99.90;;;0.68;100.00;99634.44;5037281;28;21876;-75
2023/02/24 10:24:46;;;;;;;8.32;2.45;;;2.50;99.90;;;0.65;100.00;99632.94;5032803;28;20037;-75
2023/02/24 10:27:24;;;;;;;9.32;2.30;;;2.50;99.90;;;0.56;100.00;99623.25;5041165;28;20037;-75
2023/02/24 10:30:26;;;;;;;8.40;2.47;;;2.40;99.90;;;0.59;100.00;99620.22;5043007;28;20071;-75
2023/02/24 10:33:01;;;;;;;9.48;2.75;;;2.40;99.90;;;0.58;100.00;99615.88;5035727;28;20499;-75
2023/02/24 10:35:35;;;;;;;7.15;2.38;;;2.30;99.90;;;0.62;100.00;99619.00;5042085;28;20041;-74
2023/02/24 10:38:04;;;;;;;8.38;2.28;;;2.40;99.90;;;0.52;100.00;99613.84;5041078;28;20470;-74
2023/02/24 10:40:45;;;;;;;7.10;2.65;;;2.40;99.90;;;0.52;100.00;99609.34;5034459;28;20037;-75
2023/02/24 10:43:17;;;;;;;11.85;2.78;;;2.30;99.90;;;0.55;100.00;99594.75;5044081;28;20460;-74
2023/02/24 10:45:45;;;;;;;10.32;2.58;;;2.30;99.90;;;0.50;100.00;99584.53;5039428;28;20056;-75
2023/02/24 10:48:26;;;;;;;8.10;2.50;;;2.30;99.90;;;0.55;100.00;99581.31;5040347;28;20108;-76
2023/02/24 10:51:07;;;;;;;10.07;2.30;;;2.30;99.90;;;0.69;100.00;99567.13;5053685;28;20037;-75
2023/02/24 10:53:36;;;;;;;8.98;2.53;;;2.40;99.90;;;0.73;100.00;99572.13;5046610;28;20386;-75
2023/02/24 10:56:40;;;;;;;7.82;2.47;;;2.50;99.90;;;0.90;100.00;99562.09;5048174;28;20041;-77
2023/02/24 11:01:53;;;;;;;6.57;2.42;;;2.70;99.90;;;0.94;100.00;99547.31;5056755;28;20042;-77
2023/02/24 11:07:10;;;;;;;8.23;2.25;;;2.70;99.90;;;0.98;100.00;99527.94;5032200;28;20053;-75
2023/02/24 11:09:51;;;;;;;5.93;2.42;;;2.70;99.90;;;0.92;100.00;99527.84;5047332;28;20041;-76
2023/02/24 11:18:19;;;;;;;8.25;2.40;;;2.60;99.90;;;0.83;100.00;99498.38;5041440;28;20107;-77
2023/02/24 11:20:51;;;;;;;5.25;2.53;;;2.60;99.90;;;0.88;100.00;99492.47;5031738;28;20502;-76
2023/02/24 11:23:43;;;;;;;8.05;2.67;;;2.70;99.90;;;0.86;100.00;99479.22;5039888;28;20051;-76
2023/02/24 11:26:24;;;;;;;10.48;2.40;;;2.70;99.90;;;0.91;100.00;99473.28;5036469;28;20044;-78